sensor_id;sensor_type;location;lat;lon;timestamp;pressure;altitude;pressure_sealevel;temperature;humidity
73679;BME280;61978;52.742;16.962;2022-12-20T00:01:37;101273.22;;;2.89;100.00
73679;BME280;61978;52.742;16.962;2022-12-20T00:04:04;101267.07;;;2.89;100.00
73679;BME280;61978;52.742;16.962;2022-12-20T00:06:33;101278.69;;;2.82;100.00
73679;BME280;61978;52.742;16.962;2022-12-20T00:09:01;101270.73;;;2.82;100.00
73679;BME280;61978;52.742;16.962;2022-12-20T00:11:28;101271.46;;;2.78;100.00
73679;BME280;61978;52.742;16.962;2022-12-20T00:13:56;101272.19;;;2.75;100.00
73679;BME280;61978;52.742;16.962;2022-12-20T00:16:29;101276.16;;;2.75;100.00
73679;BME280;61978;52.742;16.962;2022-12-20T00:18:59;101275.95;;;2.67;100.00
73679;BME280;61978;52.742;16.962;2022-12-20T00:21:26;101275.95;;;2.67;100.00
73679;BME280;61978;52.742;16.962;2022-12-20T00:23:53;101273.16;;;2.68;100.00
73679;BME280;61978;52.742;16.962;2022-12-20T00:26:23;101269.66;;;2.68;100.00
73679;BME280;61978;52.742;16.962;2022-12-20T00:28:49;101264.97;;;2.66;100.00
73679;BME280;61978;52.742;16.962;2022-12-20T00:31:17;101262.42;;;2.75;100.00
73679;BME280;61978;52.742;16.962;2022-12-20T00:33:45;101256.77;;;2.69;100.00
73679;BME280;61978;52.742;16.962;2022-12-20T00:36:13;101264.48;;;2.72;100.00
73679;BME280;61978;52.742;16.962;2022-12-20T00:38:49;101249.42;;;2.67;100.00
73679;BME280;61978;52.742;16.962;2022-12-20T00:41:21;101251.83;;;2.70;100.00
73679;BME280;61978;52.742;16.962;2022-12-20T00:43:49;101260.95;;;2.77;100.00
73679;BME280;61978;52.742;16.962;2022-12-20T00:46:17;101274.81;;;2.80;100.00
73679;BME280;61978;52.742;16.962;2022-12-20T00:48:45;101273.27;;;2.78;100.00
73679;BME280;61978;52.742;16.962;2022-12-20T00:51:19;101269.91;;;2.76;100.00
73679;BME280;61978;52.742;16.962;2022-12-20T00:53:45;101260.83;;;2.84;100.00
73679;BME280;61978;52.742;16.962;2022-12-20T00:56:14;101249.64;;;2.75;100.00
73679;BME280;61978;52.742;16.962;2022-12-20T00:58:44;101248.56;;;2.72;100.00
73679;BME280;61978;52.742;16.962;2022-12-20T01:01:17;101239.51;;;2.74;100.00
73679;BME280;61978;52.742;16.962;2022-12-20T01:03:45;101250.95;;;2.80;100.00
73679;BME280;61978;52.742;16.962;2022-12-20T01:06:13;101248.19;;;2.82;100.00
73679;BME280;61978;52.742;16.962;2022-12-20T01:08:40;101244.81;;;2.74;100.00
73679;BME280;61978;52.742;16.962;2022-12-20T01:11:10;101253.25;;;2.74;100.00
73679;BME280;61978;52.742;16.962;2022-12-20T01:13:38;101246.77;;;2.67;100.00
73679;BME280;61978;52.742;16.962;2022-12-20T01:16:18;101247.36;;;2.76;100.00
73679;BME280;61978;52.742;16.962;2022-12-20T01:18:44;101239.39;;;2.70;100.00
73679;BME280;61978;52.742;16.962;2022-12-20T01:21:13;101240.46;;;2.73;100.00
73679;BME280;61978;52.742;16.962;2022-12-20T01:23:40;101228.67;;;2.72;100.00
73679;BME280;61978;52.742;16.962;2022-12-20T01:26:08;101228.42;;;2.75;100.00
73679;BME280;61978;52.742;16.962;2022-12-20T01:28:39;101235.17;;;2.79;100.00
73679;BME280;61978;52.742;16.962;2022-12-20T01:31:07;101234.18;;;2.80;100.00
73679;BME280;61978;52.742;16.962;2022-12-20T01:33:35;101234.18;;;2.80;100.00
73679;BME280;61978;52.742;16.962;2022-12-20T01:36:07;101239.03;;;2.75;100.00
73679;BME280;61978;52.742;16.962;2022-12-20T01:38:33;101242.51;;;2.81;100.00
73679;BME280;61978;52.742;16.962;2022-12-20T01:41:00;101246.37;;;2.77;100.00
73679;BME280;61978;52.742;16.962;2022-12-20T01:46:15;101234.24;;;2.63;100.00
73679;BME280;61978;52.742;16.962;2022-12-20T01:48:45;101234.59;;;2.59;100.00
73679;BME280;61978;52.742;16.962;2022-12-20T01:51:12;101229.20;;;2.55;100.00
73679;BME280;61978;52.742;16.962;2022-12-20T01:53:39;101223.49;;;2.65;100.00
73679;BME280;61978;52.742;16.962;2022-12-20T01:56:06;101229.41;;;2.63;100.00
73679;BME280;61978;52.742;16.962;2022-12-20T01:58:34;101221.84;;;2.58;100.00
73679;BME280;61978;52.742;16.962;2022-12-20T02:01:02;101211.10;;;2.60;100.00
73679;BME280;61978;52.742;16.962;2022-12-20T02:03:29;101210.39;;;2.58;100.00
73679;BME280;61978;52.742;16.962;2022-12-20T02:05:56;101212.91;;;2.59;100.00
73679;BME280;61978;52.742;16.962;2022-12-20T02:08:23;101204.82;;;2.66;100.00
73679;BME280;61978;52.742;16.962;2022-12-20T02:13:59;101184.20;;;2.70;100.00
73679;BME280;61978;52.742;16.962;2022-12-20T02:16:25;101185.47;;;2.81;100.00
73679;BME280;61978;52.742;16.962;2022-12-20T02:18:59;101185.30;;;2.88;100.00
73679;BME280;61978;52.742;16.962;2022-12-20T02:21:45;101185.05;;;2.91;100.00
73679;BME280;61978;52.742;16.962;2022-12-20T02:24:18;101196.73;;;2.94;100.00
73679;BME280;61978;52.742;16.962;2022-12-20T02:32:30;101204.36;;;2.93;100.00
73679;BME280;61978;52.742;16.962;2022-12-20T02:34:52;101195.05;;;2.99;100.00
73679;BME280;61978;52.742;16.962;2022-12-20T02:37:18;101194.08;;;2.94;100.00
73679;BME280;61978;52.742;16.962;2022-12-20T02:39:45;101187.30;;;3.01;100.00
73679;BME280;61978;52.742;16.962;2022-12-20T02:42:15;101186.60;;;2.99;100.00
73679;BME280;61978;52.742;16.962;2022-12-20T02:44:45;101160.77;;;3.01;100.00
73679;BME280;61978;52.742;16.962;2022-12-20T02:47:32;101173.45;;;2.98;100.00
73679;BME280;61978;52.742;16.962;2022-12-20T02:50:02;101161.47;;;3.03;100.00
73679;BME280;61978;52.742;16.962;2022-12-20T02:52:30;101163.05;;;3.06;100.00
73679;BME280;61978;52.742;16.962;2022-12-20T02:54:57;101172.30;;;3.11;100.00
73679;BME280;61978;52.742;16.962;2022-12-20T03:00:19;101190.27;;;3.13;100.00
73679;BME280;61978;52.742;16.962;2022-12-20T03:02:47;101192.44;;;3.14;100.00
73679;BME280;61978;52.742;16.962;2022-12-20T03:05:36;101195.68;;;3.12;100.00
73679;BME280;61978;52.742;16.962;2022-12-20T03:08:03;101199.15;;;3.23;100.00
73679;BME280;61978;52.742;16.962;2022-12-20T03:10:29;101191.26;;;3.27;100.00
73679;BME280;61978;52.742;16.962;2022-12-20T03:12:56;101202.39;;;3.21;100.00
73679;BME280;61978;52.742;16.962;2022-12-20T03:15:22;101206.12;;;3.24;100.00
73679;BME280;61978;52.742;16.962;2022-12-20T03:17:50;101200.41;;;3.34;100.00
73679;BME280;61978;52.742;16.962;2022-12-20T03:20:17;101194.72;;;3.33;100.00
73679;BME280;61978;52.742;16.962;2022-12-20T03:22:43;101187.50;;;3.30;100.00
73679;BME280;61978;52.742;16.962;2022-12-20T03:25:09;101185.09;;;3.32;100.00
73679;BME280;61978;52.742;16.962;2022-12-20T03:27:36;101190.08;;;3.26;100.00
73679;BME280;61978;52.742;16.962;2022-12-20T03:30:04;101190.66;;;3.29;100.00
73679;BME280;61978;52.742;16.962;2022-12-20T03:32:32;101185.95;;;3.27;100.00
73679;BME280;61978;52.742;16.962;2022-12-20T03:34:58;101187.83;;;3.36;100.00
73679;BME280;61978;52.742;16.962;2022-12-20T03:37:27;101195.80;;;3.36;100.00
73679;BME280;61978;52.742;16.962;2022-12-20T03:39:53;101188.67;;;3.37;100.00
73679;BME280;61978;52.742;16.962;2022-12-20T03:42:19;101204.83;;;3.40;100.00
73679;BME280;61978;52.742;16.962;2022-12-20T03:44:45;101188.27;;;3.42;100.00
73679;BME280;61978;52.742;16.962;2022-12-20T03:47:12;101199.15;;;3.38;100.00
73679;BME280;61978;52.742;16.962;2022-12-20T03:49:39;101182.36;;;3.44;100.00
73679;BME280;61978;52.742;16.962;2022-12-20T03:52:05;101190.37;;;3.38;100.00
73679;BME280;61978;52.742;16.962;2022-12-20T03:54:32;101190.11;;;3.41;100.00
73679;BME280;61978;52.742;16.962;2022-12-20T03:57:00;101185.25;;;3.25;100.00
73679;BME280;61978;52.742;16.962;2022-12-20T03:59:26;101191.55;;;3.40;100.00
73679;BME280;61978;52.742;16.962;2022-12-20T04:01:53;101191.18;;;3.38;100.00
73679;BME280;61978;52.742;16.962;2022-12-20T04:04:19;101188.89;;;3.40;100.00
73679;BME280;61978;52.742;16.962;2022-12-20T04:06:45;101199.92;;;3.35;100.00
73679;BME280;61978;52.742;16.962;2022-12-20T04:09:13;101193.84;;;3.38;100.00
73679;BME280;61978;52.742;16.962;2022-12-20T04:11:42;101191.18;;;3.38;100.00
73679;BME280;61978;52.742;16.962;2022-12-20T04:14:10;101185.02;;;3.44;100.00
73679;BME280;61978;52.742;16.962;2022-12-20T04:16:36;101188.61;;;3.27;100.00
73679;BME280;61978;52.742;16.962;2022-12-20T04:19:03;101185.80;;;3.34;100.00
73679;BME280;61978;52.742;16.962;2022-12-20T04:21:33;101183.14;;;3.34;100.00
73679;BME280;61978;52.742;16.962;2022-12-20T04:24:01;101196.42;;;3.34;100.00
73679;BME280;61978;52.742;16.962;2022-12-20T04:26:29;101195.61;;;3.28;100.00
73679;BME280;61978;52.742;16.962;2022-12-20T04:28:57;101210.84;;;3.26;100.00
73679;BME280;61978;52.742;16.962;2022-12-20T04:31:24;101201.17;;;3.25;100.00
73679;BME280;61978;52.742;16.962;2022-12-20T04:33:51;101199.81;;;3.31;100.00
73679;BME280;61978;52.742;16.962;2022-12-20T04:36:18;101198.89;;;3.26;100.00
73679;BME280;61978;52.742;16.962;2022-12-20T04:38:44;101195.86;;;3.25;100.00
73679;BME280;61978;52.742;16.962;2022-12-20T04:41:11;101207.25;;;3.16;100.00
73679;BME280;61978;52.742;16.962;2022-12-20T04:43:41;101201.29;;;3.24;100.00
73679;BME280;61978;52.742;16.962;2022-12-20T04:46:07;101206.74;;;3.22;100.00
73679;BME280;61978;52.742;16.962;2022-12-20T04:48:33;101209.25;;;3.29;100.00
73679;BME280;61978;52.742;16.962;2022-12-20T04:50:59;101215.08;;;3.23;100.00
73679;BME280;61978;52.742;16.962;2022-12-20T04:53:26;101213.75;;;3.23;100.00
73679;BME280;61978;52.742;16.962;2022-12-20T04:56:10;101210.31;;;3.32;100.00
73679;BME280;61978;52.742;16.962;2022-12-20T04:58:37;101204.86;;;3.34;100.00
73679;BME280;61978;52.742;16.962;2022-12-20T05:01:04;101211.02;;;3.34;100.00
73679;BME280;61978;52.742;16.962;2022-12-20T05:03:33;101217.10;;;3.25;100.00
73679;BME280;61978;52.742;16.962;2022-12-20T05:06:00;101212.05;;;3.22;100.00
73679;BME280;61978;52.742;16.962;2022-12-20T05:08:26;101211.02;;;3.34;100.00
73679;BME280;61978;52.742;16.962;2022-12-20T05:10:53;101210.76;;;3.17;100.00
73679;BME280;61978;52.742;16.962;2022-12-20T05:13:20;101198.52;;;3.25;100.00
73679;BME280;61978;52.742;16.962;2022-12-20T05:15:51;101208.36;;;3.14;100.00
73679;BME280;61978;52.742;16.962;2022-12-20T05:18:19;101205.73;;;3.08;100.00
73679;BME280;61978;52.742;16.962;2022-12-20T05:20:56;101200.31;;;3.04;100.00
73679;BME280;61978;52.742;16.962;2022-12-20T05:23:43;101192.50;;;3.03;100.00
73679;BME280;61978;52.742;16.962;2022-12-20T05:26:32;101196.78;;;3.09;100.00
73679;BME280;61978;52.742;16.962;2022-12-20T05:28:59;101187.86;;;3.10;100.00
73679;BME280;61978;52.742;16.962;2022-12-20T05:31:26;101196.16;;;3.17;100.00
73679;BME280;61978;52.742;16.962;2022-12-20T05:33:53;101187.98;;;3.14;100.00
73679;BME280;61978;52.742;16.962;2022-12-20T05:36:20;101187.20;;;3.23;100.00
73679;BME280;61978;52.742;16.962;2022-12-20T05:38:49;101196.34;;;3.46;100.00
73679;BME280;61978;52.742;16.962;2022-12-20T05:41:16;101178.47;;;3.78;100.00
73679;BME280;61978;52.742;16.962;2022-12-20T05:43:44;101185.31;;;3.86;100.00
73679;BME280;61978;52.742;16.962;2022-12-20T05:46:13;101181.75;;;3.76;100.00
73679;BME280;61978;52.742;16.962;2022-12-20T05:48:42;101204.34;;;3.40;100.00
73679;BME280;61978;52.742;16.962;2022-12-20T05:51:08;101196.42;;;3.34;100.00
73679;BME280;61978;52.742;16.962;2022-12-20T05:53:37;101171.56;;;3.81;100.00
73679;BME280;61978;52.742;16.962;2022-12-20T05:56:05;101192.25;;;3.26;100.00
73679;BME280;61978;52.742;16.962;2022-12-20T05:58:34;101201.29;;;3.24;100.00
73679;BME280;61978;52.742;16.962;2022-12-20T06:01:03;101208.99;;;3.32;100.00
73679;BME280;61978;52.742;16.962;2022-12-20T06:03:32;101210.14;;;3.40;100.00
73679;BME280;61978;52.742;16.962;2022-12-20T06:06:00;101221.20;;;3.45;100.00
73679;BME280;61978;52.742;16.962;2022-12-20T06:08:28;101227.58;;;3.48;100.00
73679;BME280;61978;52.742;16.962;2022-12-20T06:10:56;101234.58;;;3.49;100.00
73679;BME280;61978;52.742;16.962;2022-12-20T06:13:23;101240.16;;;3.46;100.00
73679;BME280;61978;52.742;16.962;2022-12-20T06:15:52;101241.78;;;3.37;100.00
73679;BME280;61978;52.742;16.962;2022-12-20T06:18:19;101233.48;;;3.30;100.00
73679;BME280;61978;52.742;16.962;2022-12-20T06:20:51;101223.16;;;3.43;100.00
73679;BME280;61978;52.742;16.962;2022-12-20T06:23:19;101222.94;;;3.40;100.00
73679;BME280;61978;52.742;16.962;2022-12-20T06:25:48;101219.24;;;3.31;100.00
73679;BME280;61978;52.742;16.962;2022-12-20T06:28:18;101213.49;;;3.42;100.00
73679;BME280;61978;52.742;16.962;2022-12-20T06:30:54;101205.45;;;3.38;100.00
73679;BME280;61978;52.742;16.962;2022-12-20T06:33:28;101219.87;;;3.29;100.00
73679;BME280;61978;52.742;16.962;2022-12-20T06:35:54;101208.88;;;3.28;100.00
73679;BME280;61978;52.742;16.962;2022-12-20T06:38:22;101214.30;;;3.27;100.00
73679;BME280;61978;52.742;16.962;2022-12-20T06:40:50;101221.38;;;3.38;100.00
73679;BME280;61978;52.742;16.962;2022-12-20T06:43:16;101214.70;;;3.43;100.00
73679;BME280;61978;52.742;16.962;2022-12-20T06:45:44;101215.08;;;3.38;100.00
73679;BME280;61978;52.742;16.962;2022-12-20T06:48:11;101230.90;;;3.40;100.00
73679;BME280;61978;52.742;16.962;2022-12-20T06:50:38;101230.86;;;3.46;100.00
73679;BME280;61978;52.742;16.962;2022-12-20T06:53:05;101235.28;;;3.35;100.00
73679;BME280;61978;52.742;16.962;2022-12-20T06:55:32;101225.11;;;3.41;100.00
73679;BME280;61978;52.742;16.962;2022-12-20T06:57:58;101217.14;;;3.41;100.00
73679;BME280;61978;52.742;16.962;2022-12-20T07:00:25;101205.78;;;3.38;100.00
73679;BME280;61978;52.742;16.962;2022-12-20T07:02:52;101214.38;;;3.36;100.00
73679;BME280;61978;52.742;16.962;2022-12-20T07:05:18;101208.69;;;3.41;100.00
73679;BME280;61978;52.742;16.962;2022-12-20T07:07:45;101206.70;;;3.49;100.00
73679;BME280;61978;52.742;16.962;2022-12-20T07:10:12;101214.89;;;3.51;100.00
73679;BME280;61978;52.742;16.962;2022-12-20T07:12:39;101215.47;;;3.55;100.00
73679;BME280;61978;52.742;16.962;2022-12-20T07:15:06;101204.17;;;3.83;100.00
73679;BME280;61978;52.742;16.962;2022-12-20T07:17:33;101227.58;;;3.99;100.00
73679;BME280;61978;52.742;16.962;2022-12-20T07:19:59;101238.59;;;3.64;100.00
73679;BME280;61978;52.742;16.962;2022-12-20T07:22:25;101230.45;;;3.56;100.00
73679;BME280;61978;52.742;16.962;2022-12-20T07:24:52;101224.61;;;3.62;100.00
73679;BME280;61978;52.742;16.962;2022-12-20T07:27:18;101235.61;;;3.57;100.00
73679;BME280;61978;52.742;16.962;2022-12-20T07:29:44;101241.36;;;3.62;100.00
73679;BME280;61978;52.742;16.962;2022-12-20T07:32:11;101244.61;;;3.66;100.00
73679;BME280;61978;52.742;16.962;2022-12-20T07:34:39;101244.02;;;3.62;100.00
73679;BME280;61978;52.742;16.962;2022-12-20T07:37:05;101247.22;;;3.71;100.00
73679;BME280;61978;52.742;16.962;2022-12-20T07:39:33;101236.83;;;3.59;100.00
73679;BME280;61978;52.742;16.962;2022-12-20T07:41:59;101240.92;;;3.57;100.00
73679;BME280;61978;52.742;16.962;2022-12-20T07:44:26;101237.53;;;3.61;100.00
73679;BME280;61978;52.742;16.962;2022-12-20T07:46:52;101239.22;;;3.62;100.00
73679;BME280;61978;52.742;16.962;2022-12-20T07:49:18;101251.77;;;3.60;100.00
73679;BME280;61978;52.742;16.962;2022-12-20T07:51:50;101255.23;;;3.66;100.00
73679;BME280;61978;52.742;16.962;2022-12-20T07:54:27;101256.15;;;3.76;100.00
73679;BME280;61978;52.742;16.962;2022-12-20T07:56:53;101265.53;;;3.65;100.00
73679;BME280;61978;52.742;16.962;2022-12-20T07:59:23;101251.36;;;3.70;100.00
73679;BME280;61978;52.742;16.962;2022-12-20T08:01:50;101235.44;;;4.25;100.00
73679;BME280;61978;52.742;16.962;2022-12-20T08:04:21;101245.78;;;4.33;100.00
73679;BME280;61978;52.742;16.962;2022-12-20T08:06:49;101257.58;;;3.80;100.00
73679;BME280;61978;52.742;16.962;2022-12-20T08:09:18;101248.59;;;3.66;100.00
73679;BME280;61978;52.742;16.962;2022-12-20T08:11:46;101245.76;;;3.58;100.00
73679;BME280;61978;52.742;16.962;2022-12-20T08:14:13;101232.50;;;3.73;100.00
73679;BME280;61978;52.742;16.962;2022-12-20T08:16:40;101243.55;;;3.63;100.00
73679;BME280;61978;52.742;16.962;2022-12-20T08:19:07;101247.22;;;3.77;100.00
73679;BME280;61978;52.742;16.962;2022-12-20T08:21:33;101249.88;;;3.77;100.00
73679;BME280;61978;52.742;16.962;2022-12-20T08:23:59;101255.45;;;3.74;100.00
73679;BME280;61978;52.742;16.962;2022-12-20T08:26:26;101253.34;;;3.77;100.00
73679;BME280;61978;52.742;16.962;2022-12-20T08:28:55;101249.81;;;3.67;100.00
73679;BME280;61978;52.742;16.962;2022-12-20T08:31:21;101237.45;;;3.87;100.00
73679;BME280;61978;52.742;16.962;2022-12-20T08:33:47;101236.13;;;3.87;100.00
73679;BME280;61978;52.742;16.962;2022-12-20T08:36:14;101237.08;;;3.91;100.00
73679;BME280;61978;52.742;16.962;2022-12-20T08:38:40;101232.25;;;3.91;100.00
73679;BME280;61978;52.742;16.962;2022-12-20T08:41:10;101227.89;;;3.90;100.00
73679;BME280;61978;52.742;16.962;2022-12-20T08:43:37;101234.75;;;3.92;100.00
73679;BME280;61978;52.742;16.962;2022-12-20T08:46:04;101241.18;;;3.90;100.00
73679;BME280;61978;52.742;16.962;2022-12-20T08:48:32;101222.00;;;4.02;100.00
73679;BME280;61978;52.742;16.962;2022-12-20T08:51:04;101210.42;;;4.27;100.00
73679;BME280;61978;52.742;16.962;2022-12-20T08:53:31;101254.56;;;4.24;100.00
73679;BME280;61978;52.742;16.962;2022-12-20T08:56:13;101259.69;;;4.16;100.00
73679;BME280;61978;52.742;16.962;2022-12-20T08:58:40;101253.45;;;4.27;100.00
73679;BME280;61978;52.742;16.962;2022-12-20T09:01:10;101239.53;;;4.54;100.00
73679;BME280;61978;52.742;16.962;2022-12-20T09:03:37;101256.02;;;4.23;100.00
73679;BME280;61978;52.742;16.962;2022-12-20T09:06:06;101243.78;;;4.26;100.00
73679;BME280;61978;52.742;16.962;2022-12-20T09:08:37;101241.34;;;4.28;100.00
73679;BME280;61978;52.742;16.962;2022-12-20T09:11:06;101219.37;;;4.61;100.00
73679;BME280;61978;52.742;16.962;2022-12-20T09:13:33;101239.59;;;4.58;100.00
73679;BME280;61978;52.742;16.962;2022-12-20T09:16:05;101249.30;;;4.43;100.00
73679;BME280;61978;52.742;16.962;2022-12-20T09:18:29;101252.23;;;4.40;100.00
73679;BME280;61978;52.742;16.962;2022-12-20T09:21:01;101248.72;;;4.40;100.00
73679;BME280;61978;52.742;16.962;2022-12-20T09:23:29;101228.67;;;4.61;100.00
73679;BME280;61978;52.742;16.962;2022-12-20T09:26:01;101210.28;;;4.73;100.00
73679;BME280;61978;52.742;16.962;2022-12-20T09:28:29;101224.59;;;4.72;100.00
73679;BME280;61978;52.742;16.962;2022-12-20T09:31:04;101227.39;;;4.80;100.00
73679;BME280;61978;52.742;16.962;2022-12-20T09:33:32;101210.32;;;5.01;100.00
73679;BME280;61978;52.742;16.962;2022-12-20T09:36:00;101242.96;;;5.03;100.00
73679;BME280;61978;52.742;16.962;2022-12-20T09:38:27;101228.39;;;4.98;100.00
73679;BME280;61978;52.742;16.962;2022-12-20T09:40:57;101226.85;;;4.95;100.00
73679;BME280;61978;52.742;16.962;2022-12-20T09:43:23;101233.58;;;4.90;100.00
73679;BME280;61978;52.742;16.962;2022-12-20T09:45:52;101240.23;;;4.90;100.00
73679;BME280;61978;52.742;16.962;2022-12-20T09:48:25;101249.05;;;5.00;100.00
73679;BME280;61978;52.742;16.962;2022-12-20T09:56:37;101273.87;;;4.76;100.00
73679;BME280;61978;52.742;16.962;2022-12-20T09:59:09;101257.30;;;4.78;100.00
73679;BME280;61978;52.742;16.962;2022-12-20T10:01:34;101258.52;;;4.64;100.00
73679;BME280;61978;52.742;16.962;2022-12-20T10:04:16;101246.52;;;4.55;100.00
73679;BME280;61978;52.742;16.962;2022-12-20T10:22:59;101239.08;;;4.39;100.00
73679;BME280;61978;52.742;16.962;2022-12-20T10:25:30;101222.58;;;4.55;100.00
73679;BME280;61978;52.742;16.962;2022-12-20T10:27:55;101227.08;;;4.54;100.00
73679;BME280;61978;52.742;16.962;2022-12-20T10:30:24;101236.03;;;4.53;100.00
73679;BME280;61978;52.742;16.962;2022-12-20T10:32:53;101248.06;;;4.47;100.00
73679;BME280;61978;52.742;16.962;2022-12-20T10:35:29;101234.79;;;4.57;100.00
73679;BME280;61978;52.742;16.962;2022-12-20T10:38:03;101234.57;;;4.64;100.00
73679;BME280;61978;52.742;16.962;2022-12-20T10:40:33;101237.80;;;4.68;100.00
73679;BME280;61978;52.742;16.962;2022-12-20T10:43:01;101233.54;;;4.71;100.00
73679;BME280;61978;52.742;16.962;2022-12-20T10:45:36;101241.38;;;4.63;100.00
73679;BME280;61978;52.742;16.962;2022-12-20T10:48:06;101228.30;;;4.75;100.00
73679;BME280;61978;52.742;16.962;2022-12-20T10:50:33;101227.25;;;4.72;100.00
73679;BME280;61978;52.742;16.962;2022-12-20T10:55:40;101213.12;;;4.81;100.00
73679;BME280;61978;52.742;16.962;2022-12-20T11:00:48;101210.17;;;4.84;100.00
73679;BME280;61978;52.742;16.962;2022-12-20T11:03:18;101203.98;;;4.93;100.00
73679;BME280;61978;52.742;16.962;2022-12-20T11:05:57;101203.37;;;4.95;100.00
73679;BME280;61978;52.742;16.962;2022-12-20T11:08:25;101207.09;;;4.98;100.00
73679;BME280;61978;52.742;16.962;2022-12-20T11:11:14;101213.11;;;5.10;100.00
73679;BME280;61978;52.742;16.962;2022-12-20T11:13:44;101219.13;;;5.12;100.00
73679;BME280;61978;52.742;16.962;2022-12-20T11:16:25;101210.30;;;5.11;100.00
73679;BME280;61978;52.742;16.962;2022-12-20T11:19:22;101206.37;;;5.15;100.00
73679;BME280;61978;52.742;16.962;2022-12-20T11:27:30;101188.14;;;5.20;100.00
73679;BME280;61978;52.742;16.962;2022-12-20T11:30:18;101197.91;;;5.16;100.00
73679;BME280;61978;52.742;16.962;2022-12-20T11:33:10;101191.86;;;5.23;100.00
73679;BME280;61978;52.742;16.962;2022-12-20T11:35:59;101186.89;;;5.24;100.00
73679;BME280;61978;52.742;16.962;2022-12-20T11:38:46;101178.45;;;5.29;100.00
73679;BME280;61978;52.742;16.962;2022-12-20T11:49:52;101183.55;;;5.13;100.00
73679;BME280;61978;52.742;16.962;2022-12-20T11:52:38;101154.24;;;5.22;100.00
73679;BME280;61978;52.742;16.962;2022-12-20T12:00:26;101156.23;;;5.11;100.00
73679;BME280;61978;52.742;16.962;2022-12-20T12:08:03;101158.56;;;5.23;100.00
73679;BME280;61978;52.742;16.962;2022-12-20T12:10:39;101148.81;;;5.37;100.00
73679;BME280;61978;52.742;16.962;2022-12-20T12:13:26;101145.26;;;5.46;100.00
73679;BME280;61978;52.742;16.962;2022-12-20T12:16:08;101142.66;;;5.50;100.00
73679;BME280;61978;52.742;16.962;2022-12-20T12:18:37;101159.40;;;5.33;100.00
73679;BME280;61978;52.742;16.962;2022-12-20T12:23:47;101136.88;;;5.41;100.00
73679;BME280;61978;52.742;16.962;2022-12-20T12:26:23;101132.78;;;5.47;100.00
73679;BME280;61978;52.742;16.962;2022-12-20T12:28:58;101139.34;;;5.39;100.00
73679;BME280;61978;52.742;16.962;2022-12-20T12:31:35;101134.20;;;5.41;100.00
73679;BME280;61978;52.742;16.962;2022-12-20T12:39:41;101124.88;;;5.41;100.00
73679;BME280;61978;52.742;16.962;2022-12-20T12:42:11;101121.28;;;5.46;100.00
73679;BME280;61978;52.742;16.962;2022-12-20T12:45:02;101122.51;;;5.38;100.00
73679;BME280;61978;52.742;16.962;2022-12-20T12:47:51;101104.91;;;5.41;100.00
73679;BME280;61978;52.742;16.962;2022-12-20T12:52:56;101085.67;;;5.47;100.00
73679;BME280;61978;52.742;16.962;2022-12-20T13:01:02;101061.43;;;5.64;100.00
73679;BME280;61978;52.742;16.962;2022-12-20T13:03:45;101035.25;;;6.04;100.00
73679;BME280;61978;52.742;16.962;2022-12-20T13:11:33;101085.90;;;5.64;100.00
73679;BME280;61978;52.742;16.962;2022-12-20T13:17:46;101062.36;;;5.73;100.00
73679;BME280;61978;52.742;16.962;2022-12-20T13:27:41;101054.28;;;6.23;100.00
73679;BME280;61978;52.742;16.962;2022-12-20T13:40:59;101047.34;;;5.44;100.00
73679;BME280;61978;52.742;16.962;2022-12-20T13:43:35;101052.11;;;5.41;100.00
73679;BME280;61978;52.742;16.962;2022-12-20T13:51:20;101032.53;;;5.32;100.00
73679;BME280;61978;52.742;16.962;2022-12-20T13:53:52;101007.77;;;5.49;100.00
73679;BME280;61978;52.742;16.962;2022-12-20T13:58:57;101033.24;;;5.89;100.00
73679;BME280;61978;52.742;16.962;2022-12-20T14:01:25;101046.81;;;5.54;100.00
73679;BME280;61978;52.742;16.962;2022-12-20T14:03:52;101061.83;;;5.32;100.00
73679;BME280;61978;52.742;16.962;2022-12-20T14:06:21;101035.31;;;5.40;100.00
73679;BME280;61978;52.742;16.962;2022-12-20T14:08:51;101037.66;;;5.16;100.00
73679;BME280;61978;52.742;16.962;2022-12-20T14:11:20;101015.05;;;5.20;100.00
73679;BME280;61978;52.742;16.962;2022-12-20T14:13:56;101016.74;;;5.21;100.00
73679;BME280;61978;52.742;16.962;2022-12-20T14:16:25;100998.42;;;5.77;100.00
73679;BME280;61978;52.742;16.962;2022-12-20T14:19:02;101011.59;;;5.88;100.00
73679;BME280;61978;52.742;16.962;2022-12-20T14:21:29;101030.03;;;5.99;100.00
73679;BME280;61978;52.742;16.962;2022-12-20T14:23:58;101026.03;;;5.99;100.00
73679;BME280;61978;52.742;16.962;2022-12-20T14:26:32;101068.84;;;5.33;100.00
73679;BME280;61978;52.742;16.962;2022-12-20T14:28:59;101056.87;;;5.74;100.00
73679;BME280;61978;52.742;16.962;2022-12-20T14:31:39;101059.78;;;5.53;100.00
73679;BME280;61978;52.742;16.962;2022-12-20T14:39:31;101058.59;;;5.15;100.00
73679;BME280;61978;52.742;16.962;2022-12-20T14:44:35;101034.89;;;5.22;100.00
73679;BME280;61978;52.742;16.962;2022-12-20T14:47:03;101027.91;;;5.11;100.00
73679;BME280;61978;52.742;16.962;2022-12-20T14:49:36;101012.22;;;5.08;100.00
73679;BME280;61978;52.742;16.962;2022-12-20T14:52:15;100986.08;;;5.58;100.00
73679;BME280;61978;52.742;16.962;2022-12-20T15:00:25;101049.52;;;5.31;100.00
73679;BME280;61978;52.742;16.962;2022-12-20T15:02:59;101037.80;;;5.05;100.00
73679;BME280;61978;52.742;16.962;2022-12-20T15:08:21;101019.89;;;5.07;100.00